This is the latest recevied weather packets stored in our database for station/object WK7G. If no packets are shown the sender has not sent any weather packets the latest 10 day(s).
| Time | Temp. | Humidity | Pressure | Rain* | Wind** | Luminosity | Snow |
|---|---|---|---|---|---|---|---|
| 1777894673 | 5.56° C | 56% | 1004.5 hPa | 0 mm | - | 0 W/m² | - |
| 1777894369 | 4.44° C | 62% | 1004.3 hPa | 0 mm | - | 0 W/m² | - |
| 1777894068 | 3.33° C | 65% | 1004.4 hPa | 0 mm | - | 0 W/m² | - |
| 1777893764 | 3.33° C | 64% | 1004.3 hPa | 0 mm | - | 0 W/m² | - |
| 1777893461 | 3.33° C | 64% | 1004.2 hPa | 0 mm | - | 0 W/m² | - |
| 1777893157 | 2.22° C | 69% | 1004.2 hPa | 0 mm | - | 0 W/m² | - |
| 1777892853 | 2.22° C | 70% | 1004.3 hPa | 0 mm | - | 0 W/m² | - |
| 1777892550 | 3.33° C | 65% | 1004.3 hPa | 0 mm | - | 0 W/m² | - |
| 1777892245 | 3.33° C | 65% | 1004.5 hPa | 0 mm | - | 0 W/m² | - |
| 1777891032 | 2.78° C | 67% | 1004.3 hPa | 0 mm | - | 0 W/m² | - |
| 1777890731 | 1.67° C | 68% | 1004.5 hPa | 0 mm | - | 0 W/m² | - |
| 1777889821 | 3.89° C | 61% | 1004.4 hPa | 0 mm | - | 0 W/m² | - |
| 1777889518 | 5.56° C | 56% | 1004.6 hPa | 0 mm | - | 0 W/m² | - |
| 1777889215 | 4.44° C | 57% | 1004.8 hPa | 0 mm | - | 0 W/m² | - |
| 1777888914 | 3.89° C | 61% | 1004.5 hPa | 0 mm | - | 0 W/m² | - |
| 1777888610 | 4.44° C | 62% | 1004.8 hPa | 0 mm | - | 0 W/m² | - |
| 1777887700 | 6.11° C | 54% | 1004.3 hPa | 0 mm | - | 0 W/m² | - |
| 1777887396 | 6.11° C | 54% | 1004.4 hPa | 0 mm | - | 0 W/m² | - |
| 1777887092 | 6.11° C | 53% | 1004.5 hPa | 0 mm | - | 0 W/m² | - |
| 1777886788 | 5.56° C | 55% | 1004.5 hPa | 0 mm | - | 0 W/m² | - |
| 1777886484 | 5.56° C | 57% | 1004.2 hPa | 0 mm | - | 0 W/m² | - |
| 1777886182 | 5.56° C | 56% | 1004.2 hPa | 0 mm | - | 0 W/m² | - |
| 1777885880 | 5.56° C | 58% | 1004.4 hPa | 0 mm | - | 0 W/m² | - |
| 1777885579 | 6.11° C | 57% | 1004.4 hPa | 0 mm | - | 0 W/m² | - |
| 1777885276 | 5.56° C | 56% | 1004.2 hPa | 0 mm | - | 0 W/m² | - |
* Rain latest hour (hover to see other rain measurements)
** Current wind speed in m/s (hover to see current wind gust speed)